Latest Weather Observations for Shepparton

IDV60801

Issued at 4:02 am EST Wednesday 4 May 2016 (issued every 30 minutes, with the page automatically refreshed every 10 minutes)

About weather observations | Map of weather stations | Latest weather observations for VIC | Other Formats
Station Details ID: 081125 Name: SHEPPARTON AIRPORT Lat: -36.43 Lon: 145.39 Height: 113.9 m
Data from the previous 72 hours. | See also: Recent months at Shepparton
Date/Time
EST
Temp
°C
App
Temp
°C
Dew
Point
Rel
Hum
%
Delta-T
°C
Wind Press
QNH
hPa
Press
MSL
hPa
Rain
since 9 am
mm
Dir
 
Spd
km/h
Gust
km/h
Spd
kts
Gust
kts
04/04:00am 9.4 7.2 9.3 99 0.0 WNW 11 17 6 9 1012.6 1012.6 1.2
04/03:30am 9.6 7.0 9.3 98 0.1 WNW 13 17 7 9 1012.2 1012.2 1.2
04/03:00am 10.0 7.8 9.4 96 0.3 WNW 11 17 6 9 1012.0 1012.0 1.2
04/02:30am 10.3 7.4 9.8 97 0.3 WNW 15 20 8 11 1011.9 1011.9 1.2
04/02:00am 10.6 8.2 10.1 97 0.3 WNW 13 19 7 10 1011.8 1011.8 1.2
04/01:30am 11.0 7.9 10.2 95 0.4 WNW 17 22 9 12 1011.6 1011.6 1.2
04/01:00am 11.3 8.6 10.4 94 0.5 WNW 15 20 8 11 1011.6 1011.6 1.2
04/12:30am 11.7 9.5 10.9 95 0.4 NW 13 20 7 11 1011.3 1011.3 1.2
04/12:00am 11.6 10.3 11.1 97 0.3 NW 9 11 5 6 1010.8 1010.8 1.2
 
Date/Time
EST
Temp
°C
App
Temp
°C
Dew
Point
Rel
Hum
%
Delta-T
°C
Wind Press
QNH
hPa
Press
MSL
hPa
Rain
since 9 am
mm
Dir
 
Spd
km/h
Gust
km/h
Spd
kts
Gust
kts
03/11:30pm 11.7 10.7 10.9 95 0.4 NW 7 9 4 5 1010.5 1010.5 1.2
03/11:00pm 11.8 9.7 11.0 95 0.4 W 13 17 7 9 1010.9 1010.9 1.2
03/10:30pm 12.2 9.4 11.4 95 0.4 WSW 17 26 9 14 1010.7 1010.7 0.8
03/10:07pm 12.7 9.7 12.1 96 0.3 W 19 26 10 14 1010.4 1010.4 0.6
03/10:00pm 12.8 9.6 11.9 94 0.5 W 20 28 11 15 1010.2 1010.2 0.4
03/09:56pm 12.9 9.3 11.8 93 0.6 W 22 30 12 16 1010.0 1010.1 0.4
03/09:30pm 14.3 10.6 11.5 83 1.5 W 22 33 12 18 1009.5 1009.6 0.0
03/09:00pm 14.5 11.8 11.7 83 1.5 WNW 17 22 9 12 1009.0 1009.1 0.0
03/08:30pm 14.5 12.6 11.7 83 1.5 NW 13 19 7 10 1008.5 1008.6 0.0
03/08:00pm 14.4 11.7 11.6 83 1.5 NW 17 22 9 12 1008.4 1008.5 0.0
03/07:30pm 14.6 11.9 11.7 83 1.6 NW 17 22 9 12 1007.9 1008.0 0.0
03/07:00pm 14.6 11.9 11.7 83 1.6 NW 17 26 9 14 1007.6 1007.7 0.0
03/06:30pm 14.4 11.8 12.1 86 1.3 NNW 17 20 9 11 1006.9 1007.0 0.0
03/06:00pm 13.9 10.8 12.3 90 0.9 NNW 20 28 11 15 1006.3 1006.4 0.0
03/05:30pm 13.8 10.5 12.7 93 0.6 WNW 22 32 12 17 1006.5 1006.6 0.0
03/05:20pm 13.7 8.8 12.6 93 0.6 W 30 48 16 26 1006.8 1006.9 0.0
03/05:18pm 13.7 8.5 12.8 94 0.5 W 32 48 17 26 1006.9 1007.0 0.0
03/05:00pm 14.7 8.8 12.4 86 1.3 W 35 54 19 29 1006.5 1006.6 0.0
03/04:47pm 16.9 11.7 11.6 71 2.9 W 30 50 16 27 1005.9 1005.9 0.0
03/04:30pm 17.6 12.5 10.7 64 3.7 WNW 28 37 15 20 1005.5 1005.5 0.0
03/04:00pm 18.5 11.9 8.7 53 5.1 WNW 33 56 18 30 1005.0 1005.0 0.0
03/03:57pm 18.8 12.8 8.5 51 5.4 NW 30 56 16 30 1004.8 1004.8 0.0
03/03:30pm 19.2 13.6 7.3 46 6.1 NW 26 39 14 21 1004.1 1004.1 0.0
03/03:00pm 19.1 13.1 6.9 45 6.2 NW 28 43 15 23 1004.2 1004.2 0.0
03/02:30pm 19.5 13.1 6.9 44 6.4 NW 30 43 16 23 1004.3 1004.3 0.0
03/02:00pm 19.8 12.8 6.2 41 6.8 NNW 32 48 17 26 1004.3 1004.3 0.0
03/01:30pm 20.7 13.6 6.3 39 7.3 NW 33 56 18 30 1004.8 1004.8 0.0
03/01:00pm 20.5 13.0 6.5 40 7.1 NW 35 56 19 30 1005.3 1005.3 0.0
03/12:31pm 19.3 11.3 5.7 41 6.7 NW 37 56 20 30 1005.5 1005.5 0.0
03/12:30pm 19.5 11.5 5.9 41 6.8 NW 37 54 20 29 1005.5 1005.5 0.0
03/12:00pm 19.6 12.5 5.6 40 7.0 NW 32 50 17 27 1006.0 1006.0 0.0
03/11:58am 19.6 12.8 5.3 39 7.0 NNW 30 50 16 27 1006.0 1006.0 0.0
03/11:30am 19.0 12.0 6.2 43 6.4 NNW 32 46 17 25 1006.5 1006.6 0.0
03/11:24am 18.9 12.8 6.4 44 6.3 NNW 28 46 15 25 1006.5 1006.6 0.0
03/11:00am 18.7 13.6 7.5 48 5.7 NNW 24 37 13 20 1006.9 1007.0 0.0
03/10:30am 17.7 12.5 7.2 50 5.3 N 24 32 13 17 1007.1 1007.2 0.0
03/10:00am 16.8 11.7 7.7 55 4.6 N 24 32 13 17 1007.6 1007.7 0.0
03/09:30am 15.2 11.0 7.3 59 3.9 N 19 24 10 13 1008.4 1008.5 0.0
03/09:00am 13.5 9.1 6.6 63 3.3 N 19 24 10 13 1008.9 1009.0 0.0
03/08:30am 12.6 8.0 6.6 67 2.9 N 20 26 11 14 1008.9 1009.0 0.0
03/08:00am 12.3 7.9 6.6 68 2.7 N 19 24 10 13 1008.8 1008.9 0.0
03/07:30am 11.4 6.9 6.3 71 2.4 N 19 24 10 13 1008.8 1008.9 0.0
03/07:00am 12.1 7.5 6.6 69 2.6 N 20 26 11 14 1008.7 1008.8 0.0
03/06:30am 12.1 7.6 6.8 70 2.5 N 20 26 11 14 1008.8 1008.9 0.0
03/06:00am 12.4 8.0 6.7 68 2.7 N 19 24 10 13 1009.1 1009.2 0.0
03/05:30am 12.5 8.1 6.5 67 2.9 N 19 26 10 14 1009.3 1009.4 0.0
03/05:00am 11.8 7.4 6.7 71 2.4 N 19 24 10 13 1009.3 1009.4 0.0
03/04:30am 11.3 6.8 6.8 74 2.1 N 20 24 11 13 1009.4 1009.5 0.0
03/04:00am 10.5 7.0 7.2 80 1.6 NNE 15 20 8 11 1009.5 1009.6 0.0
03/03:30am 10.9 7.4 7.2 78 1.8 N 15 19 8 10 1009.7 1009.8 0.0
03/03:00am 10.8 6.9 7.1 78 1.8 N 17 20 9 11 1010.2 1010.2 0.0
03/02:30am 10.6 7.1 7.1 79 1.7 N 15 19 8 10 1010.5 1010.5 0.0
03/02:00am 10.4 6.8 6.9 79 1.7 N 15 19 8 10 1010.9 1010.9 0.0
03/01:30am 10.2 7.0 6.9 80 1.6 N 13 17 7 9 1011.0 1011.0 0.0
03/01:00am 10.2 6.6 6.7 79 1.7 N 15 20 8 11 1011.2 1011.2 0.0
03/12:30am 10.5 6.9 6.6 77 1.8 N 15 19 8 10 1011.4 1011.4 0.0
03/12:00am 10.9 6.9 6.5 74 2.1 NNE 17 20 9 11 1011.7 1011.7 0.0
 
Date/Time
EST
Temp
°C
App
Temp
°C
Dew
Point
Rel
Hum
%
Delta-T
°C
Wind Press
QNH
hPa
Press
MSL
hPa
Rain
since 9 am
mm
Dir
 
Spd
km/h
Gust
km/h
Spd
kts
Gust
kts
02/11:30pm 11.2 7.1 6.3 72 2.3 NNE 17 22 9 12 1011.9 1011.9 0.0
02/11:00pm 11.1 7.8 6.5 73 2.2 NNE 13 17 7 9 1012.2 1012.2 0.0
02/10:30pm 11.5 8.2 6.4 71 2.4 NNE 13 19 7 10 1012.4 1012.4 0.0
02/10:00pm 11.1 8.3 6.8 75 2.1 NNE 11 15 6 8 1012.8 1012.8 0.0
02/09:30pm 11.0 8.2 6.9 76 2.0 NNE 11 15 6 8 1012.9 1012.9 0.0
02/09:00pm 10.3 8.2 6.8 79 1.7 NNE 7 9 4 5 1013.1 1013.1 0.0
02/08:30pm 10.6 8.1 6.7 77 1.8 N 9 13 5 7 1013.2 1013.2 0.0
02/08:00pm 10.5 8.0 6.5 76 1.9 N 9 13 5 7 1013.0 1013.0 0.0
02/07:30pm 12.2 9.0 6.7 69 2.6 NNE 13 15 7 8 1013.0 1013.0 0.0
02/07:00pm 11.9 9.0 6.4 69 2.6 N 11 13 6 7 1013.1 1013.1 0.0
02/06:30pm 12.5 9.6 6.3 66 3.0 N 11 13 6 7 1013.1 1013.1 0.0
02/06:00pm 14.2 11.2 6.1 58 3.9 NNW 11 17 6 9 1013.1 1013.1 0.0
02/05:30pm 15.0 12.1 6.3 56 4.2 NNW 11 15 6 8 1012.8 1012.8 0.0
02/05:00pm 15.6 12.7 6.6 55 4.4 NNW 11 17 6 9 1012.7 1012.7 0.0
02/04:30pm 15.9 12.3 6.6 54 4.6 NW 15 20 8 11 1012.8 1012.8 0.0
02/04:00pm 16.1 11.5 6.3 52 4.8 NW 20 30 11 16 1013.0 1013.0 0.0
02/03:30pm 15.9 12.3 6.9 55 4.5 NW 15 20 8 11 1013.2 1013.2 0.0
02/03:00pm 15.8 11.9 7.3 57 4.2 NNW 17 22 9 12 1013.4 1013.4 0.0
02/02:30pm 15.6 11.4 7.4 58 4.1 NNW 19 30 10 16 1013.4 1013.4 0.0
02/02:00pm 15.9 10.7 7.1 56 4.4 NNW 24 35 13 19 1013.4 1013.4 0.0
02/01:30pm 15.8 10.5 8.3 61 3.8 N 26 33 14 18 1013.4 1013.4 0.0
02/01:00pm 15.5 10.4 7.8 60 3.9 N 24 32 13 17 1013.8 1013.9 0.0
02/12:30pm 14.7 9.9 7.3 61 3.7 N 22 30 12 16 1014.4 1014.5 0.0
02/12:00pm 14.5 10.1 7.5 63 3.5 N 20 26 11 14 1014.9 1015.0 0.0
02/11:30am 13.9 9.9 8.3 69 2.8 NNE 19 24 10 13 1015.2 1015.3 0.0
02/11:00am 12.7 10.0 9.0 78 1.9 NNE 13 19 7 10 1015.6 1015.7 0.0
02/10:30am 11.7 8.3 7.8 77 1.9 NNE 15 20 8 11 1015.8 1015.9 0.0
02/10:00am 10.8 7.9 8.0 83 1.4 NNE 13 17 7 9 1016.0 1016.1 0.0
02/09:30am 9.8 6.8 7.7 87 1.0 NNE 13 17 7 9 1016.0 1016.1 0.0
02/09:00am 8.8 5.8 7.6 92 0.6 NE 13 17 7 9 1016.0 1016.1 0.0
02/08:30am 8.0 4.9 7.2 95 0.4 NE 13 17 7 9 1016.0 1016.1 0.0
02/08:00am 7.1 5.0 6.8 98 0.1 NNE 7 11 4 6 1016.3 1016.4 0.0
02/07:30am 6.2 4.2 6.1 99 0.0 NE 6 7 3 4 1016.1 1016.2 0.0
02/07:00am 5.4 3.0 5.3 99 0.0 NE 7 9 4 5 1016.0 1016.1 0.0
02/06:30am 5.2 3.3 5.1 99 0.0 NE 4 9 2 5 1016.0 1016.1 0.0
02/06:00am 4.7 2.7 4.6 99 0.0 NE 4 9 2 5 1016.2 1016.3 0.0
02/05:30am 4.8 2.9 4.7 99 0.0 NE 4 7 2 4 1016.2 1016.3 0.0
02/05:00am 4.6 3.4 4.5 99 0.0 CALM 0 0 0 0 1016.3 1016.4 0.0
02/04:30am 4.8 3.6 4.7 99 0.0 CALM 0 0 0 0 1016.0 1016.1 0.0
02/04:00am 4.6 3.4 4.5 99 0.0 CALM 0 0 0 0 1016.0 1016.1 0.0
02/03:30am 5.1 4.0 5.0 99 0.0 CALM 0 0 0 0 1015.8 1015.9 0.0
02/03:00am 5.7 3.4 5.6 99 0.0 NE 7 9 4 5 1015.9 1016.0 0.0
02/02:30am 5.8 4.4 5.7 99 0.0 N 2 6 1 3 1016.2 1016.3 0.0
02/02:00am 5.8 4.8 5.5 98 0.1 CALM 0 0 0 0 1016.5 1016.6 0.0
02/01:30am 6.1 5.1 5.7 97 0.2 CALM 0 0 0 0 1016.6 1016.7 0.0
02/01:00am 6.6 5.7 5.9 95 0.3 CALM 0 0 0 0 1017.0 1017.1 0.0
02/12:30am 6.6 4.5 5.7 94 0.4 NW 6 7 3 4 1017.2 1017.3 0.0
02/12:00am 6.7 5.7 5.7 93 0.4 CALM 0 0 0 0 1017.5 1017.6 0.0
 
Date/Time
EST
Temp
°C
App
Temp
°C
Dew
Point
Rel
Hum
%
Delta-T
°C
Wind Press
QNH
hPa
Press
MSL
hPa
Rain
since 9 am
mm
Dir
 
Spd
km/h
Gust
km/h
Spd
kts
Gust
kts
01/11:30pm 7.3 6.3 5.8 90 0.7 CALM 0 0 0 0 1017.6 1017.7 0.0
01/11:00pm 8.2 7.3 6.0 86 1.0 CALM 0 0 0 0 1017.6 1017.7 0.0
01/10:30pm 8.1 6.8 5.9 86 1.0 WNW 2 9 1 5 1017.6 1017.7 0.0
01/10:00pm 9.4 7.3 6.5 82 1.4 WNW 7 11 4 6 1017.6 1017.7 0.0
01/09:30pm 10.0 7.5 6.7 80 1.6 NW 9 11 5 6 1017.4 1017.5 0.0
01/09:00pm 10.3 7.8 6.6 78 1.7 WNW 9 13 5 7 1017.1 1017.2 0.0
01/08:30pm 10.7 8.2 6.5 75 2.0 WNW 9 11 5 6 1016.7 1016.8 0.0
01/08:00pm 11.5 8.6 6.6 72 2.3 WNW 11 13 6 7 1016.5 1016.6 0.0
01/07:30pm 12.0 9.6 6.9 71 2.5 WNW 9 11 5 6 1016.3 1016.4 0.0
01/07:00pm 12.1 10.1 7.2 72 2.4 W 7 9 4 5 1015.8 1015.9 0.0
01/06:30pm 12.9 10.1 7.1 68 2.8 WNW 11 17 6 9 1015.6 1015.7 0.0
01/06:00pm 13.6 10.9 7.4 66 3.0 WNW 11 17 6 9 1015.1 1015.2 0.0
01/05:30pm 14.0 10.1 7.3 64 3.3 WNW 17 22 9 12 1014.6 1014.7 0.0
01/05:00pm 14.8 9.8 6.6 58 4.0 WNW 22 32 12 17 1014.3 1014.4 0.0
01/04:30pm 15.3 10.4 6.8 57 4.2 W 22 32 12 17 1013.9 1014.0 0.0
01/04:00pm 15.8 9.4 6.8 55 4.4 W 30 41 16 22 1013.4 1013.4 0.0
01/03:30pm 15.7 8.6 6.4 54 4.5 W 33 43 18 23 1013.0 1013.0 0.0
01/03:00pm 15.9 9.0 6.6 54 4.6 W 32 50 17 27 1012.7 1012.7 0.0
01/02:55pm 16.2 9.3 6.6 53 4.7 W 32 50 17 27 1012.6 1012.6 0.0
01/02:30pm 15.7 8.4 7.2 57 4.2 W 35 50 19 27 1012.4 1012.4 0.0
01/02:00pm 15.6 7.1 6.9 56 4.3 W 41 59 22 32 1012.0 1012.0 0.0
01/01:39pm 16.0 7.9 7.2 56 4.4 WNW 39 57 21 31 1011.9 1011.9 0.0
01/01:30pm 15.7 7.2 7.0 56 4.3 W 41 56 22 30 1011.9 1011.9 0.0
01/01:03pm 15.3 8.1 7.6 60 3.8 W 35 54 19 29 1012.0 1012.0 0.0
01/01:00pm 15.7 8.3 8.2 61 3.8 W 37 54 20 29 1012.0 1012.0 0.0
01/12:30pm 16.1 9.9 9.3 64 3.5 W 32 50 17 27 1011.8 1011.8 0.0
01/12:27pm 15.6 9.2 8.6 63 3.6 W 32 50 17 27 1011.8 1011.8 0.0
01/12:00pm 14.9 7.9 8.4 65 3.3 W 35 50 19 27 1012.0 1012.0 0.0
01/11:30am 14.7 8.1 8.4 66 3.2 W 33 52 18 28 1012.0 1012.0 0.0
01/11:04am 15.5 9.2 9.6 68 3.1 W 33 52 18 28 1012.1 1012.1 0.0
01/11:00am 15.3 8.9 9.2 67 3.2 WNW 33 46 18 25 1012.2 1012.2 0.0
01/10:35am 14.9 8.5 8.4 65 3.3 W 32 56 17 30 1012.0 1012.0 0.0
01/10:30am 14.6 8.1 8.3 66 3.2 WNW 32 46 17 25 1012.0 1012.0 0.0
01/10:12am 15.1 8.9 9.9 71 2.7 WNW 33 52 18 28 1012.0 1012.0 0.0
01/10:00am 14.7 8.8 9.1 69 2.9 WNW 30 46 16 25 1011.8 1011.8 0.0
01/09:40am 14.8 8.7 9.8 72 2.6 WNW 32 50 17 27 1011.7 1011.5 0.0
01/09:30am 14.8 8.8 10.2 74 2.4 WNW 32 46 17 25 1011.7 1011.5 0.0
01/09:00am 14.8 9.7 10.6 76 2.2 WNW 28 39 15 21 1011.3 1011.1 6.4
01/08:30am 14.6 10.0 11.0 79 1.9 WNW 26 39 14 21 1010.9 1010.7 6.4
01/08:00am 14.3 9.1 10.3 77 2.1 WNW 28 39 15 21 1010.4 1010.2 6.4
01/07:30am 14.1 10.0 11.4 84 1.4 WNW 24 37 13 20 1009.8 1009.7 6.4
01/07:00am 13.8 10.7 11.7 87 1.1 NW 19 28 10 15 1009.2 1009.1 6.4
01/06:30am 13.8 11.3 12.2 90 0.9 NW 17 24 9 13 1008.8 1008.7 6.4
01/06:00am 13.5 11.7 13.3 99 0.1 NNW 15 19 8 10 1008.5 1008.4 6.4
01/05:30am 13.5 12.8 13.3 99 0.1 NNW 9 13 5 7 1008.1 1008.0 6.4
01/05:00am 13.8 13.6 13.5 98 0.2 NW 7 11 4 6 1007.8 1007.7 6.2
01/04:47am 14.0 13.4 13.5 97 0.3 NW 9 13 5 7 1007.6 1007.5 6.2
01/04:30am 14.3 13.5 14.0 98 0.2 NW 11 15 6 8 1007.8 1007.7 6.2
01/04:07am 14.3 12.8 14.1 99 0.1 NW 15 20 8 11 1007.7 1007.6 6.2

Other Formats:

Comma delimited format used in spreadsheet applications
http://www.bom.gov.au/fwo/IDV60801/IDV60801.94875.axf

JavaScript Object Notation format (JSON) in row-major order
http://www.bom.gov.au/fwo/IDV60801/IDV60801.94875.json